Quincy Regional Baldwin Field
KUIN : rendu visible

Aérodrome :











RETROUVEZ-NOUS SUR...

 
LOGIN :

S'inscrire | Disclaimer

   EN    FR    IT 

 









Légende :    VFR   VFR Marginal   IFR   IFR Intensif   IFR Très Intensif
Visi : 
Plafond : 
>= 8 km
>= 3000ft
5 à 8 km
1000 à 3000 ft
1500m à 5 km
500 à 1000 ft
800 à 1500m
200 à 500 ft
< 800m
< 200 ft
Symboles :   Orages  Brouillard  Fortes neiges  Fortes précipitations  Vent > 20 kt






- Altitude de l'aérodrome : 768 ft
- Code IATA : UIN


KUIN - Quincy Regional Baldwin Field

DERNIER METAR :
  • 151828Z AUTO 08008KT 6SM VCTS BR FEW006 BKN011 OVC025 23/22 A2986 RMK AO2 LTG DSNT W-NE RAE27 TSE08 PRESFR P0001 T02330217

METARs EXPIRÉS :
  • 151814Z AUTO 03006KT 4SM VCTS -RA BR OVC008 23/21 A2990 RMK AO2 LTG DSNT W-NE TSE08 CIG 005V010 P0000 T02280211
  • 151758Z AUTO 32005KT 4SM -TSRA BR BKN008 BKN028 OVC047 23/21 A2991 RMK AO2 LTG DSNT N AND NE P0000 T02280211
  • 151739Z AUTO 12005KT 5SM -TSRA BR FEW037 BKN055 OVC075 23/21 A2989 RMK AO2 LTG DSNT W-N TSB33 P0002 T02280211
  • 151720Z AUTO 12009KT 4SM VCTS -RA BR FEW008 BKN070 OVC085 23/21 A2988 RMK AO2 LTG DSNT ALQDS P0001 T02330211
  • 151654Z AUTO 10006KT 7SM -RA FEW021 BKN060 OVC110 23/21 A2991 RMK AO2 LTG DSNT W SLP122 P0003 T02280211
  • 151608Z AUTO 08007KT 4SM -RA BR FEW007 BKN080 OVC120 22/21 A2989 RMK AO2 LTG DSNT NE AND E P0001 T02220206
  • 151554Z AUTO 09007KT 3SM -RA BR BKN007 BKN039 BKN120 22/21 A2989 RMK AO2 LTG DSNT N-SE TSB1456E44 SLP117 P0040 T02170206
  • 151542Z AUTO 10008KT 2 1/2SM -TSRA BR SCT005 BKN009 OVC023 21/21 A2991 RMK AO2 LTG DSNT ALQDS TSB1456 P0039 T02110206

TAF KUIN
Valide du 15 à 18h jusqu'au 16 à 18h UTC


151750Z 1518/1618 14006KT 6SM -SHRA VCTS BKN050CB
FM152100 26006KT 3SM -TSRA BR OVC035CB
TEMPO 1521/1523 2SM TSRA BR OVC008CB
FM152300 32006KT P6SM VCSH OVC020
FM160200 34006KT P6SM BKN010
FM160600 34005KT P6SM BKN025
FIR KZKC / Amérique du Nord



MET'MAP, la Météo Aéronautique d'un coup d'oeil ! - Copyright ORBIFLY Décembre 2007 - Disclaimer

ORBIFLY MET'MAP TEAM :

Programmation & Développement : Alexandra Zaïnal
Sur une idée originale de : Baudouin d'Aumeries
Assistance à la programmation : Marc-Olivier Méhu
Soutien technique & logistique : Manuel Goepfert

Contact : metmap@orbifly.com




SOURCES & CREDITS :

   NOAA       Earth
Advisory